Time;durP1;ratioP1;P1;durP2;ratioP2;P2;SDS_P1;SDS_P2;PMS_P1;PMS_P2;Temp;Humidity;BMP_temperature;BMP_pressure;BME280_temperature;BME280_humidity;BME280_pressure;Samples;Min_cycle;Max_cycle;Signal;HPM_P1;HPM_P2
2022/06/25 00:02:14;;;;;;;4.85;2.08;;;;;;;16.05;100.00;100672.19;5233545;28;20087;-69
2022/06/25 00:07:35;;;;;;;4.28;2.03;;;;;;;16.05;100.00;100675.75;5228523;28;20480;-69
2022/06/25 00:10:07;;;;;;;3.88;2.00;;;;;;;16.06;100.00;100679.28;5242540;28;20037;-70
2022/06/25 00:12:38;;;;;;;3.90;2.20;;;;;;;16.10;100.00;100677.97;5227712;28;20102;-69
2022/06/25 00:15:10;;;;;;;5.30;2.08;;;;;;;15.97;100.00;100678.34;5226392;28;20029;-69
2022/06/25 00:17:42;;;;;;;4.35;2.25;;;;;;;16.02;100.00;100694.06;5233421;28;20033;-70
2022/06/25 00:20:13;;;;;;;4.50;2.10;;;;;;;16.00;100.00;100685.28;5232201;28;20116;-70
2022/06/25 00:22:45;;;;;;;4.18;2.20;;;;;;;15.96;100.00;100684.75;5228507;28;20460;-69
2022/06/25 00:25:17;;;;;;;4.55;2.40;;;;;;;15.97;100.00;100681.03;5224842;28;20085;-69
2022/06/25 00:27:48;;;;;;;4.25;2.35;;;;;;;15.98;100.00;100692.69;5228963;28;20161;-69
2022/06/25 00:30:19;;;;;;;3.60;2.05;;;;;;;15.90;100.00;100679.13;5237020;28;20957;-69
2022/06/25 00:32:50;;;;;;;4.57;2.70;;;;;;;15.94;100.00;100681.38;5236374;28;20044;-69
2022/06/25 00:35:23;;;;;;;3.88;2.35;;;;;;;15.90;100.00;100688.06;5238206;28;20094;-69
2022/06/25 00:37:54;;;;;;;4.53;2.10;;;;;;;15.87;100.00;100688.38;5235508;28;20060;-69
2022/06/25 00:40:26;;;;;;;5.45;2.60;;;;;;;15.83;100.00;100677.09;5236374;28;20120;-69
2022/06/25 00:42:57;;;;;;;5.10;2.72;;;;;;;15.84;100.00;100691.41;5242670;28;20025;-70
2022/06/25 00:45:28;;;;;;;3.80;2.33;;;;;;;15.93;100.00;100694.97;5242189;28;20033;-69
2022/06/25 00:48:00;;;;;;;4.13;2.83;;;;;;;15.81;100.00;100686.31;5244726;28;20364;-69
2022/06/25 00:50:31;;;;;;;4.35;2.30;;;;;;;15.84;100.00;100691.41;5239797;28;20017;-69
2022/06/25 00:53:04;;;;;;;6.15;2.70;;;;;;;15.80;100.00;100698.94;5243167;28;20037;-70
2022/06/25 00:55:38;;;;;;;3.85;2.47;;;;;;;15.81;100.00;100694.38;5240420;28;20045;-69
2022/06/25 00:58:11;;;;;;;4.55;2.45;;;;;;;15.77;100.00;100691.16;5242270;28;20029;-69
2022/06/25 01:00:42;;;;;;;4.97;2.60;;;;;;;15.78;100.00;100697.38;5238678;28;20067;-69
2022/06/25 01:03:14;;;;;;;5.28;2.60;;;;;;;15.73;100.00;100700.53;5235320;28;20386;-69
2022/06/25 01:05:45;;;;;;;3.25;2.65;;;;;;;15.71;100.00;100702.50;5226324;28;20026;-69
2022/06/25 01:08:18;;;;;;;6.28;2.95;;;;;;;15.68;100.00;100708.19;5223702;28;20044;-69
2022/06/25 01:10:49;;;;;;;6.05;2.88;;;;;;;15.63;100.00;100705.97;5227745;28;20436;-69
2022/06/25 01:13:21;;;;;;;5.05;2.78;;;;;;;15.62;100.00;100708.81;5234572;28;20036;-70
2022/06/25 01:15:53;;;;;;;4.95;3.00;;;;;;;15.65;100.00;100713.91;5232255;28;20029;-70
2022/06/25 01:18:24;;;;;;;5.55;2.92;;;;;;;15.64;100.00;100709.50;5234652;28;20116;-69
2022/06/25 01:20:55;;;;;;;5.95;3.42;;;;;;;15.57;100.00;100711.09;5234603;28;20572;-69
2022/06/25 01:23:29;;;;;;;4.68;3.17;;;;;;;15.56;100.00;100715.66;5236625;28;20041;-69
2022/06/25 01:26:00;;;;;;;6.88;3.55;;;;;;;15.62;100.00;100709.66;5239397;28;20078;-69
2022/06/25 01:28:32;;;;;;;6.30;3.45;;;;;;;15.54;100.00;100724.88;5234056;28;20822;-69
2022/06/25 01:31:03;;;;;;;4.72;3.65;;;;;;;15.54;100.00;100724.88;5232625;28;20028;-70
2022/06/25 01:33:34;;;;;;;5.88;3.30;;;;;;;15.50;100.00;100727.03;5235426;28;20033;-69
2022/06/25 01:36:05;;;;;;;5.40;3.47;;;;;;;15.54;100.00;100727.56;5234860;28;20037;-69
2022/06/25 01:38:37;;;;;;;6.13;3.70;;;;;;;15.49;100.00;100736.94;5234762;28;20761;-70
2022/06/25 01:41:08;;;;;;;5.75;3.80;;;;;;;15.43;100.00;100737.53;5233778;28;20395;-69
2022/06/25 01:43:39;;;;;;;6.55;3.88;;;;;;;15.51;100.00;100735.94;5243721;28;20040;-69
2022/06/25 01:46:11;;;;;;;9.55;3.70;;;;;;;15.44;100.00;100744.59;5241332;28;20098;-69
2022/06/25 01:48:42;;;;;;;6.85;3.50;;;;;;;15.44;100.00;100741.91;5237890;28;20065;-69
2022/06/25 01:51:15;;;;;;;4.95;3.45;;;;;;;15.40;100.00;100747.75;5247477;28;20335;-70
2022/06/25 01:53:46;;;;;;;6.60;3.10;;;;;;;15.42;100.00;100751.16;5240047;28;20055;-70
2022/06/25 01:56:17;;;;;;;8.07;3.45;;;;;;;15.34;100.00;100753.72;5238669;28;20507;-69
2022/06/25 01:58:48;;;;;;;6.50;3.60;;;;;;;15.33;100.00;100750.19;5245109;28;20609;-70
2022/06/25 02:01:20;;;;;;;7.13;3.55;;;;;;;15.34;100.00;100757.28;5245419;28;20083;-69
2022/06/25 02:03:51;;;;;;;6.72;3.58;;;;;;;15.32;100.00;100766.47;5239893;28;20049;-69
2022/06/25 02:06:23;;;;;;;5.13;3.55;;;;;;;15.27;100.00;100761.56;5235498;28;20041;-70
2022/06/25 02:08:54;;;;;;;5.78;3.80;;;;;;;15.26;100.00;100763.41;5235623;28;20033;-69
2022/06/25 02:11:25;;;;;;;6.85;3.95;;;;;;;15.21;100.00;100767.53;5233388;28;21646;-70
2022/06/25 02:13:56;;;;;;;6.50;3.55;;;;;;;15.28;100.00;100765.91;5235112;28;20479;-70
2022/06/25 02:16:28;;;;;;;5.10;3.83;;;;;;;15.15;100.00;100771.66;5229949;28;20172;-69
2022/06/25 02:18:59;;;;;;;7.90;4.00;;;;;;;15.13;100.00;100775.47;5222520;28;20064;-69
2022/06/25 02:21:31;;;;;;;7.85;3.72;;;;;;;15.14;100.00;100777.19;5222303;28;20561;-69
2022/06/25 02:24:02;;;;;;;6.10;3.70;;;;;;;15.08;100.00;100784.00;5224962;28;20476;-69
2022/06/25 02:26:34;;;;;;;7.03;3.88;;;;;;;15.01;100.00;100772.97;5227456;28;20135;-69
2022/06/25 02:29:05;;;;;;;7.47;4.03;;;;;;;15.01;100.00;100780.19;5233213;28;20021;-69
2022/06/25 02:31:36;;;;;;;6.90;3.90;;;;;;;15.03;100.00;100783.59;5234727;28;20041;-69
2022/06/25 02:34:07;;;;;;;5.57;3.70;;;;;;;14.97;100.00;100779.66;5225705;28;21620;-69
2022/06/25 02:36:39;;;;;;;6.95;3.90;;;;;;;14.90;100.00;100792.84;5244378;28;20029;-69
2022/06/25 02:39:10;;;;;;;6.28;3.65;;;;;;;14.97;100.00;100790.38;5231436;28;20513;-69
2022/06/25 02:41:41;;;;;;;7.53;4.30;;;;;;;14.94;100.00;100801.44;5229464;28;20912;-70
2022/06/25 02:44:13;;;;;;;6.18;3.90;;;;;;;15.00;100.00;100806.22;5234984;28;20767;-69
2022/06/25 02:46:44;;;;;;;7.75;4.45;;;;;;;15.06;100.00;100800.25;5231693;28;20039;-69
2022/06/25 02:49:15;;;;;;;7.00;3.80;;;;;;;14.87;100.00;100806.53;5232319;28;20071;-69
2022/06/25 02:51:46;;;;;;;8.70;4.03;;;;;;;14.90;100.00;100808.94;5232866;28;20483;-69
2022/06/25 02:54:18;;;;;;;8.25;5.13;;;;;;;14.86;100.00;100812.94;5246725;28;20045;-69
2022/06/25 02:59:47;;;;;;;6.85;4.70;;;;;;;14.92;100.00;100819.56;5233163;28;20411;-69
2022/06/25 03:02:18;;;;;;;8.07;4.80;;;;;;;14.85;100.00;100823.81;5231271;28;20052;-69
2022/06/25 03:04:49;;;;;;;8.57;4.32;;;;;;;14.86;100.00;100809.38;5231977;28;20546;-69
2022/06/25 03:07:21;;;;;;;8.25;4.95;;;;;;;14.98;100.00;100816.28;5229602;28;20439;-69
2022/06/25 03:09:52;;;;;;;8.30;4.78;;;;;;;14.86;100.00;100807.56;5237393;28;20056;-69
2022/06/25 03:12:23;;;;;;;8.57;5.03;;;;;;;14.87;100.00;100809.22;5231546;28;20032;-68
2022/06/25 03:14:54;;;;;;;7.90;5.10;;;;;;;14.84;100.00;100812.22;5230317;28;20647;-68
2022/06/25 03:17:26;;;;;;;9.23;4.50;;;;;;;14.83;100.00;100809.69;5228989;28;20032;-68
2022/06/25 03:19:57;;;;;;;5.78;4.70;;;;;;;14.87;100.00;100803.84;5230884;28;21463;-70
2022/06/25 03:22:28;;;;;;;7.57;4.70;;;;;;;14.79;100.00;100814.50;5228641;28;20029;-69
2022/06/25 03:25:00;;;;;;;7.32;4.90;;;;;;;14.81;100.00;100809.81;5232533;28;20029;-69
2022/06/25 03:27:31;;;;;;;8.25;5.10;;;;;;;14.84;100.00;100814.91;5229473;28;20403;-69
2022/06/25 03:30:03;;;;;;;7.88;5.43;;;;;;;14.83;100.00;100815.06;5226301;28;20052;-68
2022/06/25 03:32:35;;;;;;;6.85;4.70;;;;;;;14.85;100.00;100813.06;5237104;28;20060;-68
2022/06/25 03:35:07;;;;;;;8.07;4.90;;;;;;;14.87;100.00;100824.50;5240667;28;20906;-69
2022/06/25 03:37:38;;;;;;;7.82;4.90;;;;;;;14.90;100.00;100821.53;5228634;28;20017;-69
2022/06/25 03:40:10;;;;;;;9.35;4.90;;;;;;;15.02;100.00;100825.72;5239811;28;20056;-69
2022/06/25 03:42:41;;;;;;;7.65;4.88;;;;;;;15.04;100.00;100825.59;5236571;28;20446;-69
2022/06/25 03:45:12;;;;;;;6.85;4.68;;;;;;;15.08;100.00;100824.31;5238497;28;20069;-69
2022/06/25 03:47:50;;;;;;;6.10;4.35;;;;;;;15.21;100.00;100823.97;5238155;28;20029;-69
2022/06/25 03:50:22;;;;;;;7.32;4.60;;;;;;;15.21;100.00;100829.34;5235242;28;20050;-69
2022/06/25 03:52:53;;;;;;;6.68;4.72;;;;;;;15.32;100.00;100837.19;5237721;28;20505;-69
2022/06/25 03:55:25;;;;;;;6.22;4.18;;;;;;;15.35;100.00;100836.91;5235628;28;20168;-70
2022/06/25 03:57:56;;;;;;;6.68;4.57;;;;;;;15.48;100.00;100826.66;5239020;28;20056;-68
2022/06/25 04:00:27;;;;;;;7.55;4.47;;;;;;;15.50;100.00;100823.81;5239654;28;20028;-69
2022/06/25 04:02:58;;;;;;;5.40;4.45;;;;;;;15.47;100.00;100830.34;5239261;28;20029;-69
2022/06/25 04:05:30;;;;;;;8.55;4.40;;;;;;;15.52;100.00;100826.38;5232786;28;20470;-69
2022/06/25 04:08:02;;;;;;;6.75;4.00;;;;;;;15.53;100.00;100822.66;5234894;28;20152;-69
2022/06/25 04:10:33;;;;;;;4.60;4.00;;;;;;;15.51;100.00;100835.41;5236299;28;20549;-69
2022/06/25 04:13:04;;;;;;;8.65;4.05;;;;;;;15.52;100.00;100837.13;5235514;28;20056;-69
2022/06/25 04:15:36;;;;;;;7.07;3.85;;;;;;;15.51;100.00;100840.78;5236528;28;20057;-69
2022/06/25 04:18:08;;;;;;;5.20;3.88;;;;;;;15.54;100.00;100837.81;5235188;28;20056;-70
2022/06/25 04:20:39;;;;;;;6.18;4.25;;;;;;;15.63;100.00;100829.69;5237513;28;20498;-69
2022/06/25 04:23:11;;;;;;;4.80;3.88;;;;;;;15.58;100.00;100837.34;5232034;28;20033;-69
2022/06/25 04:25:42;;;;;;;7.60;4.88;;;;;;;15.58;100.00;100842.75;5234341;28;20030;-70
2022/06/25 04:31:23;;;;;;;5.95;4.10;;;;;;;15.74;100.00;100842.09;5187739;28;20037;-69
2022/06/25 04:33:55;;;;;;;7.25;4.10;;;;;;;15.78;100.00;100851.59;5183489;28;20034;-69
2022/06/25 04:36:27;;;;;;;6.07;3.90;;;;;;;15.91;100.00;100848.50;5208523;28;20140;-69
2022/06/25 04:38:58;;;;;;;4.47;3.85;;;;;;;16.04;100.00;100857.06;5227806;28;20826;-69
2022/06/25 04:41:29;;;;;;;5.93;3.63;;;;;;;16.25;100.00;100861.31;5227560;28;20072;-69
2022/06/25 04:44:01;;;;;;;6.90;3.58;;;;;;;16.36;100.00;100852.16;5228096;28;20030;-69
2022/06/25 04:46:32;;;;;;;8.18;3.67;;;;;;;16.50;100.00;100858.81;5227039;28;20600;-69
2022/06/25 04:49:04;;;;;;;7.13;3.50;;;;;;;16.58;100.00;100862.41;5226652;28;20036;-69
2022/06/25 04:51:35;;;;;;;6.15;3.30;;;;;;;16.63;100.00;100870.88;5227400;28;20033;-69
2022/06/25 04:54:06;;;;;;;6.63;4.05;;;;;;;16.71;100.00;100872.78;5228591;28;20077;-69
2022/06/25 04:56:37;;;;;;;5.35;2.97;;;;;;;16.77;100.00;100872.16;5228493;28;20466;-69
2022/06/25 04:59:09;;;;;;;6.25;3.15;;;;;;;16.81;100.00;100872.69;5228249;28;20061;-69
2022/06/25 05:01:40;;;;;;;5.35;3.10;;;;;;;16.84;100.00;100867.03;5227976;28;20094;-69
2022/06/25 05:04:12;;;;;;;6.68;3.25;;;;;;;16.85;100.00;100884.88;5226100;28;20021;-69
2022/06/25 05:06:44;;;;;;;5.95;3.28;;;;;;;16.91;100.00;100884.25;5222216;28;20040;-69
2022/06/25 05:09:15;;;;;;;4.78;2.97;;;;;;;16.94;100.00;100885.78;5223481;28;20035;-69
2022/06/25 05:11:46;;;;;;;5.55;3.30;;;;;;;16.94;100.00;100883.09;5223067;28;20071;-69
2022/06/25 05:14:18;;;;;;;6.57;2.90;;;;;;;16.99;100.00;100888.84;5220863;28;20036;-69
2022/06/25 05:16:49;;;;;;;6.40;3.95;;;;;;;16.95;100.00;100885.66;5222992;28;20590;-69
2022/06/25 05:19:21;;;;;;;5.05;3.10;;;;;;;16.98;100.00;100885.31;5221826;28;20038;-70
2022/06/25 05:21:52;;;;;;;6.90;3.50;;;;;;;16.99;100.00;100889.72;5223659;28;20032;-69
2022/06/25 05:24:23;;;;;;;5.35;3.33;;;;;;;17.02;100.00;100894.75;5220381;28;20025;-69
2022/06/25 05:26:55;;;;;;;6.38;3.30;;;;;;;17.11;100.00;100890.28;5223268;28;20090;-69
2022/06/25 05:29:28;;;;;;;4.72;2.80;;;;;;;17.19;100.00;100890.31;5222338;28;20044;-69
2022/06/25 05:32:00;;;;;;;6.85;3.58;;;;;;;17.30;100.00;100896.47;5235723;28;20552;-69
2022/06/25 05:34:31;;;;;;;5.75;3.00;;;;;;;17.42;100.00;100893.31;5221798;28;20029;-69
2022/06/25 05:37:03;;;;;;;4.53;3.17;;;;;;;17.54;100.00;100899.28;5224566;28;20443;-68
2022/06/25 05:39:34;;;;;;;7.07;3.00;;;;;;;17.57;100.00;100893.56;5228536;28;20037;-70
2022/06/25 05:42:05;;;;;;;5.90;3.00;;;;;;;17.67;100.00;100903.38;5227361;28;20063;-69
2022/06/25 05:44:36;;;;;;;6.43;2.95;;;;;;;17.71;100.00;100892.09;5219913;28;20025;-69
2022/06/25 05:47:08;;;;;;;7.70;3.35;;;;;;;17.82;100.00;100905.28;5235299;28;20029;-69
2022/06/25 05:49:39;;;;;;;7.22;3.58;;;;;;;17.80;100.00;100904.63;5228147;28;21869;-70
2022/06/25 05:52:10;;;;;;;6.20;3.03;;;;;;;17.90;100.00;100909.91;5241732;28;20395;-69
2022/06/25 05:54:42;;;;;;;4.60;2.75;;;;;;;18.05;100.00;100915.53;5244081;28;20042;-68
2022/06/25 05:57:13;;;;;;;5.95;3.10;;;;;;;18.11;100.00;100925.66;5237238;28;20526;-70
2022/06/25 05:59:44;;;;;;;7.22;3.13;;;;;;;18.17;100.00;100925.00;5238941;28;20028;-69
2022/06/25 06:02:16;;;;;;;6.35;2.70;;;;;;;18.31;100.00;100928.06;5243347;28;20037;-69
2022/06/25 06:04:47;;;;;;;6.40;3.03;;;;;;;18.41;100.00;100926.06;5234713;28;20433;-69
2022/06/25 06:07:19;;;;;;;6.82;2.95;;;;;;;18.60;100.00;100928.44;5235899;28;20060;-70
2022/06/25 06:09:50;;;;;;;5.65;3.00;;;;;;;18.66;100.00;100928.78;5242408;28;20036;-69
2022/06/25 06:12:22;;;;;;;5.40;3.05;;;;;;;18.80;100.00;100928.97;5237584;28;20079;-70
2022/06/25 06:14:53;;;;;;;4.85;3.10;;;;;;;18.79;100.00;100934.53;5234511;28;20069;-69
2022/06/25 06:17:24;;;;;;;6.50;3.38;;;;;;;18.89;100.00;100935.25;5237564;28;20450;-69
2022/06/25 06:19:55;;;;;;;4.80;2.88;;;;;;;18.91;100.00;100937.78;5239200;28;20029;-70
2022/06/25 06:22:28;;;;;;;5.65;3.00;;;;;;;18.89;100.00;100940.66;5242255;28;20763;-70
2022/06/25 06:24:59;;;;;;;6.05;3.00;;;;;;;19.02;100.00;100950.09;5245444;28;20019;-69
2022/06/25 06:27:31;;;;;;;5.85;3.22;;;;;;;19.00;100.00;100953.84;5238383;28;20032;-69
2022/06/25 06:30:03;;;;;;;6.10;2.92;;;;;;;18.97;100.00;100951.44;5245184;28;20033;-70
2022/06/25 06:32:34;;;;;;;6.75;3.13;;;;;;;19.11;100.00;100954.47;5233326;28;20040;-70
2022/06/25 06:35:06;;;;;;;4.80;2.67;;;;;;;19.23;100.00;100953.09;5247733;28;21189;-70
2022/06/25 06:37:37;;;;;;;5.85;2.58;;;;;;;19.24;100.00;100962.09;5235488;28;20032;-70
2022/06/25 06:40:09;;;;;;;3.80;2.50;;;;;;;19.43;97.79;100955.47;5235998;28;20067;-70
2022/06/25 06:42:40;;;;;;;5.55;2.40;;;;;;;19.43;98.87;100959.00;5237216;28;20820;-69
2022/06/25 06:45:11;;;;;;;5.70;2.80;;;;;;;19.47;96.64;100960.34;5234473;28;20533;-70
2022/06/25 06:47:43;;;;;;;5.95;2.72;;;;;;;19.66;98.10;100958.28;5232171;28;20456;-70
2022/06/25 06:50:14;;;;;;;6.38;2.83;;;;;;;19.73;96.21;100953.84;5232752;28;20039;-70
2022/06/25 06:52:45;;;;;;;6.68;2.63;;;;;;;19.77;95.20;100966.03;5231513;28;20225;-70
2022/06/25 06:55:17;;;;;;;4.13;2.67;;;;;;;19.81;98.24;100956.56;5230387;28;20046;-69
2022/06/25 06:57:48;;;;;;;5.10;2.80;;;;;;;19.76;93.63;100953.53;5233559;28;20056;-70
2022/06/25 07:00:19;;;;;;;6.25;2.78;;;;;;;19.72;96.79;100963.84;5235938;28;20446;-70
2022/06/25 07:02:50;;;;;;;7.32;2.78;;;;;;;19.87;95.96;100955.00;5233475;28;20447;-70
2022/06/25 07:05:22;;;;;;;5.88;2.42;;;;;;;19.85;93.41;100951.59;5244153;28;20099;-70
2022/06/25 07:07:53;;;;;;;6.47;2.58;;;;;;;19.84;93.32;100953.47;5240829;28;20032;-69
2022/06/25 07:10:25;;;;;;;7.47;2.60;;;;;;;19.76;91.46;100954.34;5238822;28;20155;-70
2022/06/25 07:12:56;;;;;;;8.18;2.75;;;;;;;19.79;94.04;100955.88;5238528;28;20061;-70
2022/06/25 07:15:27;;;;;;;7.13;3.20;;;;;;;19.86;92.83;100958.72;5239792;28;20478;-70
2022/06/25 07:17:59;;;;;;;5.35;2.40;;;;;;;20.00;96.41;100946.28;5246772;28;20017;-70
2022/06/25 07:20:30;;;;;;;5.05;2.45;;;;;;;20.06;92.28;100964.53;5236124;28;20033;-69
2022/06/25 07:23:01;;;;;;;4.60;2.55;;;;;;;20.12;91.28;100962.00;5240753;28;20028;-69
2022/06/25 07:25:33;;;;;;;5.22;2.58;;;;;;;20.10;89.59;100965.91;5236638;28;20435;-70
2022/06/25 07:28:04;;;;;;;7.60;3.08;;;;;;;20.14;89.38;100959.09;5223530;28;20522;-69
2022/06/25 07:30:35;;;;;;;6.35;2.53;;;;;;;20.01;89.59;100966.97;5219593;28;20472;-70
2022/06/25 07:33:07;;;;;;;6.60;2.50;;;;;;;20.17;90.02;100969.56;5227255;28;20123;-70
2022/06/25 07:35:38;;;;;;;6.43;2.20;;;;;;;20.16;90.52;100966.03;5233297;28;20440;-70
2022/06/25 07:38:10;;;;;;;3.92;2.20;;;;;;;20.36;92.06;100960.16;5236691;28;20037;-70
2022/06/25 07:40:41;;;;;;;3.92;2.22;;;;;;;20.78;90.21;100968.88;5236517;28;20033;-70
2022/06/25 07:43:12;;;;;;;4.97;2.38;;;;;;;20.87;90.96;100957.78;5227340;28;20037;-70
2022/06/25 07:45:43;;;;;;;3.67;2.30;;;;;;;20.82;92.16;100962.06;5231849;28;20313;-70
2022/06/25 07:48:15;;;;;;;6.55;2.20;;;;;;;20.75;87.97;100979.06;5232717;28;20025;-70
2022/06/25 07:53:36;;;;;;;4.88;1.90;;;;;;;20.76;87.92;100974.47;5232015;28;20047;-70
2022/06/25 07:56:07;;;;;;;5.50;2.03;;;;;;;20.70;88.38;100977.94;5234903;28;20029;-70
2022/06/25 07:58:38;;;;;;;3.15;1.83;;;;;;;20.79;89.36;100975.97;5230677;28;20743;-70
2022/06/25 08:01:10;;;;;;;5.32;2.10;;;;;;;21.03;90.24;100977.66;5235631;28;20044;-70
2022/06/25 08:03:42;;;;;;;3.10;1.90;;;;;;;21.14;89.60;100977.22;5233365;28;20032;-70
2022/06/25 08:06:13;;;;;;;5.13;2.17;;;;;;;21.31;85.46;100972.50;5224124;28;20031;-70
2022/06/25 08:08:45;;;;;;;4.18;1.55;;;;;;;21.27;85.98;100972.00;5229261;28;21382;-70
2022/06/25 08:11:16;;;;;;;6.55;2.03;;;;;;;21.31;83.28;100975.19;5240606;28;20032;-70
2022/06/25 08:13:48;;;;;;;3.95;1.70;;;;;;;21.09;84.02;100976.91;5245761;28;20170;-70
2022/06/25 08:16:21;;;;;;;5.05;2.00;;;;;;;20.99;86.88;100973.63;5237678;28;20398;-71
2022/06/25 08:18:53;;;;;;;3.65;1.67;;;;;;;20.79;86.82;100971.41;5232744;28;20044;-70
2022/06/25 08:21:24;;;;;;;3.03;1.38;;;;;;;20.63;89.83;100977.78;5229083;28;20044;-71
2022/06/25 08:23:56;;;;;;;4.22;1.80;;;;;;;20.61;88.27;100985.25;5226927;28;20095;-70
2022/06/25 08:26:27;;;;;;;3.13;1.67;;;;;;;20.27;91.06;100983.75;5223376;28;20025;-70
2022/06/25 08:28:59;;;;;;;2.72;1.52;;;;;;;20.07;88.68;100985.22;5224096;28;20086;-70
2022/06/25 08:31:30;;;;;;;4.47;1.60;;;;;;;20.10;94.36;100987.56;5244265;28;20072;-70
2022/06/25 08:34:02;;;;;;;3.15;1.50;;;;;;;20.27;90.34;100983.75;5221916;28;20029;-70
2022/06/25 08:36:33;;;;;;;3.70;1.80;;;;;;;20.66;88.48;100992.88;5229943;28;20028;-70
2022/06/25 08:39:04;;;;;;;3.45;1.70;;;;;;;20.99;87.94;100982.59;5235750;28;20040;-70
2022/06/25 08:41:36;;;;;;;4.63;1.42;;;;;;;21.05;85.70;100975.59;5229934;28;20078;-70
2022/06/25 08:44:08;;;;;;;3.45;1.30;;;;;;;21.15;84.81;100978.91;5227180;28;20037;-71
2022/06/25 08:46:39;;;;;;;4.90;1.48;;;;;;;21.38;83.64;100981.56;5230395;28;20601;-70
2022/06/25 08:49:11;;;;;;;4.68;1.73;;;;;;;21.51;86.52;100976.34;5239444;28;20059;-70
2022/06/25 08:51:43;;;;;;;5.10;1.67;;;;;;;21.45;84.06;100984.41;5243233;28;20521;-70
2022/06/25 08:54:16;;;;;;;4.65;1.60;;;;;;;21.46;82.50;100986.94;5229306;28;20736;-70
2022/06/25 08:56:47;;;;;;;4.80;1.75;;;;;;;21.67;82.80;100983.50;5226012;28;20563;-70
2022/06/25 08:59:19;;;;;;;3.30;1.67;;;;;;;21.66;81.63;100981.81;5232616;28;20026;-70
2022/06/25 09:01:50;;;;;;;6.45;1.80;;;;;;;21.85;83.79;100985.00;5239297;28;20510;-70
2022/06/25 09:04:21;;;;;;;5.00;1.60;;;;;;;22.07;81.62;100983.19;5235693;28;20025;-70
2022/06/25 09:07:12;;;;;;;4.30;1.58;;;;;;;22.09;83.42;100995.56;5239675;28;20079;-71
2022/06/25 09:09:49;;;;;;;4.55;1.80;;;;;;;22.16;83.59;100990.19;5239108;28;20076;-69
2022/06/25 09:12:22;;;;;;;4.72;2.03;;;;;;;22.24;79.90;100992.78;5236123;28;20024;-70
2022/06/25 09:14:53;;;;;;;2.83;1.45;;;;;;;22.31;80.78;100988.31;5240572;28;20036;-71
2022/06/25 09:17:24;;;;;;;3.83;1.70;;;;;;;22.35;81.18;100987.94;5232905;28;20033;-70
2022/06/25 09:19:57;;;;;;;4.68;1.70;;;;;;;22.34;82.13;100999.84;5254170;28;20024;-70
2022/06/25 09:22:31;;;;;;;5.30;1.40;;;;;;;22.29;78.95;100987.66;5241106;28;20024;-71
2022/06/25 09:25:02;;;;;;;4.00;1.50;;;;;;;22.23;79.78;100991.13;5240980;28;20025;-70
2022/06/25 09:27:36;;;;;;;5.60;1.73;;;;;;;22.16;79.00;100989.38;5239492;28;20085;-71
2022/06/25 09:30:10;;;;;;;4.38;1.60;;;;;;;22.61;83.89;100990.09;5240774;28;20437;-71
2022/06/25 09:32:54;;;;;;;2.75;1.20;;;;;;;22.69;79.85;100995.44;5248650;28;20021;-71
2022/06/25 09:35:29;;;;;;;;;;;;;;;23.12;81.86;100994.59;5246457;28;20033;-71
2022/06/25 09:38:05;;;;;;;3.10;1.40;;;;;;;22.80;80.57;100984.03;5241108;28;19940;-70
2022/06/25 09:40:38;;;;;;;6.55;2.15;;;;;;;22.89;79.58;100988.28;5237999;28;20148;-71
2022/06/25 09:43:14;;;;;;;4.90;1.30;;;;;;;23.13;81.96;100991.69;5240330;28;20567;-70
2022/06/25 09:45:53;;;;;;;3.63;1.40;;;;;;;23.22;80.00;100989.66;5243225;28;20036;-70
2022/06/25 09:48:28;;;;;;;4.57;1.40;;;;;;;23.33;75.03;100991.84;5235456;28;20779;-71
2022/06/25 09:51:09;;;;;;;3.05;1.15;;;;;;;23.76;77.61;100988.13;5239916;28;20025;-71
2022/06/25 09:53:55;;;;;;;3.70;1.20;;;;;;;23.93;74.63;100999.56;5243429;28;20408;-71
2022/06/25 09:56:28;;;;;;;4.95;2.20;;;;;;;23.83;72.88;101008.13;5240524;28;20033;-71
2022/06/25 09:59:00;;;;;;;2.90;1.10;;;;;;;23.95;69.82;101001.06;5238896;28;20083;-71
2022/06/25 10:01:35;;;;;;;3.90;1.10;;;;;;;24.02;68.65;100995.63;5245882;28;20120;-70
2022/06/25 10:04:08;;;;;;;2.83;1.08;;;;;;;23.96;70.76;101002.72;5238051;28;20025;-70
2022/06/25 10:06:40;;;;;;;2.65;0.93;;;;;;;24.10;69.64;100994.63;5236230;28;20052;-70
2022/06/25 10:09:14;;;;;;;4.20;1.27;;;;;;;24.04;69.50;100997.09;5225993;28;20063;-70
2022/06/25 10:11:46;;;;;;;3.72;1.38;;;;;;;24.01;68.08;101002.97;5237803;28;20025;-70
2022/06/25 10:14:18;;;;;;;3.05;1.17;;;;;;;24.40;66.21;100998.72;5240196;28;20570;-71
2022/06/25 10:16:50;;;;;;;5.38;1.42;;;;;;;24.40;66.64;100989.72;5237260;28;20074;-69
2022/06/25 10:19:24;;;;;;;4.63;1.20;;;;;;;24.45;68.31;100988.03;5240779;28;20033;-71
2022/06/25 10:21:56;;;;;;;5.00;1.77;;;;;;;24.24;65.11;100996.38;5240651;28;20126;-71
2022/06/25 10:24:28;;;;;;;2.30;0.90;;;;;;;24.07;64.84;100991.25;5235163;28;20487;-71
2022/06/25 10:27:00;;;;;;;1.70;0.70;;;;;;;23.98;67.37;100987.03;5239100;28;20037;-71
2022/06/25 10:29:31;;;;;;;3.17;1.00;;;;;;;23.75;65.69;100972.84;5237462;28;20345;-71
2022/06/25 10:32:21;;;;;;;3.60;1.13;;;;;;;23.82;69.33;100969.13;5240670;28;20028;-71
2022/06/25 10:34:56;;;;;;;3.00;1.05;;;;;;;23.72;64.83;100986.84;5249110;28;20876;-71
2022/06/25 10:37:58;;;;;;;2.95;0.88;;;;;;;24.01;69.21;100974.84;5239229;28;20028;-71
2022/06/25 10:40:30;;;;;;;3.08;0.88;;;;;;;23.91;64.01;100966.22;5236227;28;20095;-71
2022/06/25 10:43:04;;;;;;;2.45;0.75;;;;;;;24.10;68.56;100975.53;5237736;28;20390;-70
2022/06/25 10:45:35;;;;;;;3.42;0.70;;;;;;;23.95;65.70;100982.00;5239513;28;20061;-71
2022/06/25 10:48:07;;;;;;;2.53;0.80;;;;;;;23.89;64.14;100977.31;5241384;28;20128;-71
2022/06/25 10:50:38;;;;;;;2.20;0.80;;;;;;;23.96;68.93;100986.38;5235289;28;21091;-71
2022/06/25 10:53:09;;;;;;;2.72;0.75;;;;;;;23.97;66.76;100981.75;5239119;28;20107;-71
2022/06/25 10:55:59;;;;;;;2.92;0.70;;;;;;;24.32;66.04;100979.00;5242855;28;20042;-70
2022/06/25 10:58:58;;;;;;;1.98;0.82;;;;;;;24.30;66.35;100976.47;5237135;28;20037;-71
2022/06/25 11:01:31;;;;;;;2.22;0.82;;;;;;;24.40;63.48;100976.06;5251480;28;20040;-72
2022/06/25 11:04:05;;;;;;;2.65;0.70;;;;;;;24.30;65.18;100973.72;5246090;28;20423;-71
2022/06/25 11:06:39;;;;;;;3.45;0.68;;;;;;;24.34;62.07;100971.44;5241800;28;20086;-73
2022/06/25 11:09:15;;;;;;;1.55;0.50;;;;;;;24.53;63.10;100972.56;5237028;28;20490;-70
2022/06/25 11:11:48;;;;;;;1.90;0.90;;;;;;;24.53;61.55;100972.56;5246672;28;20036;-70
2022/06/25 11:14:22;;;;;;;2.65;0.70;;;;;;;24.47;63.08;100979.66;5238492;28;20031;-71
2022/06/25 11:16:55;;;;;;;1.90;0.70;;;;;;;24.48;62.86;100975.03;5232863;28;20395;-72
2022/06/25 11:19:26;;;;;;;2.10;0.88;;;;;;;24.62;62.16;100971.31;5235510;28;20043;-70
2022/06/25 11:22:00;;;;;;;3.58;0.90;;;;;;;24.57;62.72;100966.47;5234030;28;20020;-70
2022/06/25 11:24:33;;;;;;;3.15;0.77;;;;;;;24.78;63.32;100972.81;5234570;28;20048;-71
2022/06/25 11:29:54;;;;;;;3.00;0.60;;;;;;;24.98;62.75;100978.28;5233111;28;20041;-71
2022/06/25 11:32:31;;;;;;;3.65;0.80;;;;;;;24.93;60.98;100976.19;5237134;28;20502;-71
2022/06/25 11:35:02;;;;;;;2.75;0.88;;;;;;;24.79;63.53;100979.94;5239609;28;20064;-71
2022/06/25 11:37:33;;;;;;;2.22;0.93;;;;;;;24.79;61.54;100982.66;5259299;28;20151;-71
2022/06/25 11:40:17;;;;;;;2.17;0.60;;;;;;;24.93;61.19;100981.66;5245957;28;20067;-72
2022/06/25 11:42:48;;;;;;;2.30;0.70;;;;;;;24.79;65.12;100980.78;5234274;28;20523;-71
2022/06/25 11:45:19;;;;;;;1.80;0.52;;;;;;;25.10;61.31;100984.78;5238825;28;20017;-72
2022/06/25 11:47:51;;;;;;;2.50;1.02;;;;;;;24.88;60.49;100991.50;5239620;28;20025;-71
2022/06/25 11:50:22;;;;;;;2.65;0.70;;;;;;;24.79;63.33;100986.22;5238598;28;20036;-70
2022/06/25 11:52:54;;;;;;;3.15;0.90;;;;;;;24.67;62.13;100981.63;5249560;28;20605;-72
2022/06/25 11:55:25;;;;;;;2.05;0.70;;;;;;;24.35;61.41;100979.41;5253179;28;20406;-72
2022/06/25 11:57:58;;;;;;;1.73;0.63;;;;;;;24.41;62.59;100983.19;5249805;28;20384;-72
2022/06/25 12:00:29;;;;;;;2.08;0.60;;;;;;;24.60;63.32;100968.81;5249810;28;20067;-72